createdAt,value
2019-04-23T00:01:28.442Z,5.92
2019-04-23T00:03:52.005Z,5.90
2019-04-23T00:11:26.107Z,6.00
2019-04-23T00:13:49.788Z,5.80
2019-04-23T00:16:26.478Z,5.78
2019-04-23T00:18:53.850Z,5.80
2019-04-23T00:21:28.196Z,5.97
2019-04-23T00:24:13.924Z,5.80
2019-04-23T00:26:30.559Z,6.15
2019-04-23T00:29:05.358Z,6.10
2019-04-23T00:31:43.806Z,6.22
2019-04-23T00:34:01.080Z,6.15
2019-04-23T00:36:32.720Z,6.25
2019-04-23T00:38:54.025Z,5.60
2019-04-23T00:41:34.840Z,6.05
2019-04-23T00:46:33.915Z,5.60
2019-04-23T00:51:30.327Z,6.03
2019-04-23T00:54:02.247Z,5.78
2019-04-23T00:56:38.672Z,5.62
2019-04-23T00:59:01.322Z,6.28
2019-04-23T01:01:36.931Z,5.75
2019-04-23T01:04:01.982Z,5.85
2019-04-23T01:06:27.243Z,6.30
2019-04-23T01:08:55.159Z,6.25
2019-04-23T01:11:27.686Z,6.37
2019-04-23T01:13:58.676Z,6.05
2019-04-23T01:16:29.891Z,5.75
2019-04-23T01:18:58.212Z,5.90
2019-04-23T01:21:11.678Z,6.20
2019-04-23T01:23:57.830Z,7.03
2019-04-23T01:26:41.827Z,6.75
2019-04-23T01:29:37.862Z,5.92
2019-04-23T01:31:53.174Z,6.03
2019-04-23T01:34:20.115Z,6.05
2019-04-23T01:36:42.957Z,6.33
2019-04-23T01:39:20.445Z,6.37
2019-04-23T01:41:47.544Z,6.15
2019-04-23T01:44:27.824Z,6.20
2019-04-23T01:46:49.293Z,6.30
2019-04-23T01:49:23.635Z,6.30
2019-04-23T01:54:19.281Z,5.97
2019-04-23T01:56:47.403Z,6.42
2019-04-23T01:59:20.120Z,6.70
2019-04-23T02:01:51.555Z,6.40
2019-04-23T02:04:24.386Z,6.20
2019-04-23T02:07:04.420Z,6.78
2019-04-23T02:09:28.914Z,6.42
2019-04-23T02:12:11.228Z,6.40
2019-04-23T02:16:55.914Z,6.70
2019-04-23T02:19:23.831Z,6.25
2019-04-23T02:22:13.151Z,6.58
2019-04-23T02:24:51.161Z,6.37
2019-04-23T02:27:12.133Z,6.58
2019-04-23T02:29:51.289Z,6.95
2019-04-23T02:32:23.894Z,6.30
2019-04-23T02:35:13.433Z,6.22
2019-04-23T02:37:22.407Z,5.97
2019-04-23T02:42:28.614Z,6.30
2019-04-23T02:44:50.692Z,6.28
2019-04-23T02:49:58.512Z,6.42
2019-04-23T02:54:50.490Z,6.05
2019-04-23T02:57:16.236Z,6.70
2019-04-23T03:00:07.842Z,6.42
2019-04-23T03:04:49.964Z,6.67
2019-04-23T03:07:26.752Z,6.05
2019-04-23T03:14:55.829Z,6.40
2019-04-23T03:17:21.538Z,6.17
2019-04-23T03:20:11.173Z,6.30
2019-04-23T03:22:35.513Z,6.70
2019-04-23T03:25:25.248Z,6.33
2019-04-23T03:27:41.638Z,6.80
2019-04-23T03:30:16.908Z,6.87
2019-04-23T03:32:51.989Z,6.55
2019-04-23T03:35:16.300Z,6.35
2019-04-23T03:37:42.479Z,6.25
2019-04-23T03:40:11.622Z,6.35
2019-04-23T03:42:42.417Z,5.78
2019-04-23T03:47:58.646Z,6.33
2019-04-23T03:50:23.701Z,6.17
2019-04-23T03:52:38.553Z,6.60
2019-04-23T03:55:11.903Z,6.17
2019-04-23T04:00:24.915Z,6.08
2019-04-23T04:02:52.465Z,6.25
2019-04-23T04:05:10.564Z,6.05
2019-04-23T04:07:49.283Z,6.35
2019-04-23T04:10:09.047Z,5.70
2019-04-23T04:12:45.977Z,6.22
2019-04-23T04:17:40.263Z,5.95
2019-04-23T04:22:49.152Z,6.55
2019-04-23T04:25:11.799Z,6.53
2019-04-23T04:27:48.985Z,6.28
2019-04-23T04:40:10.852Z,6.60
2019-04-23T04:42:39.325Z,6.42
2019-04-23T04:45:20.340Z,7.08
2019-04-23T04:55:08.939Z,5.97
2019-04-23T04:57:40.208Z,6.22
2019-04-23T05:00:17.759Z,6.67
2019-04-23T05:02:57.417Z,6.62
2019-04-23T05:07:35.850Z,6.42
2019-04-23T05:12:34.956Z,6.17
2019-04-23T05:15:03.011Z,6.72
2019-04-23T05:17:42.325Z,6.17
2019-04-23T05:20:05.651Z,6.28
2019-04-23T05:22:33.266Z,6.53
2019-04-23T05:24:51.066Z,6.45
2019-04-23T05:27:30.969Z,6.92
2019-04-23T05:30:02.529Z,6.62
2019-04-23T05:32:26.815Z,6.50
2019-04-23T05:34:57.638Z,6.58
2019-04-23T05:37:37.147Z,6.83
2019-04-23T05:39:54.547Z,6.20
2019-04-23T05:42:26.346Z,6.42
2019-04-23T05:44:59.306Z,6.35
2019-04-23T05:47:27.382Z,6.55
2019-04-23T05:50:02.052Z,6.65
2019-04-23T05:52:29.797Z,6.10
2019-04-23T05:55:01.525Z,6.15
2019-04-23T05:57:20.606Z,6.37
2019-04-23T05:59:57.250Z,5.85
2019-04-23T06:02:26.650Z,5.97
2019-04-23T06:04:58.819Z,6.15
2019-04-23T06:09:59.455Z,6.35
2019-04-23T06:12:24.981Z,5.95
2019-04-23T06:14:57.622Z,6.17
2019-04-23T06:17:27.133Z,5.87
2019-04-23T06:19:59.667Z,5.80
2019-04-23T06:22:35.369Z,6.10
2019-04-23T06:24:57.921Z,6.40
2019-04-23T06:27:27.357Z,6.42
2019-04-23T06:29:57.109Z,6.47
2019-04-23T06:32:26.086Z,5.67
2019-04-23T06:34:53.130Z,5.60
2019-04-23T06:37:38.653Z,6.90
2019-04-23T06:39:55.184Z,6.80
2019-04-23T06:42:23.458Z,7.33
2019-04-23T06:44:56.123Z,5.97
2019-04-23T06:47:24.825Z,5.72
2019-04-23T06:49:55.885Z,5.60
2019-04-23T06:52:21.688Z,5.72
2019-04-23T06:57:22.420Z,5.33
2019-04-23T06:59:55.501Z,5.62
2019-04-23T07:02:30.571Z,5.72
2019-04-23T07:09:57.866Z,5.55
2019-04-23T07:12:41.146Z,5.50
2019-04-23T07:14:55.428Z,5.30
2019-04-23T07:17:24.679Z,5.50
2019-04-23T07:19:56.668Z,5.22
2019-04-23T07:22:23.262Z,5.22
2019-04-23T07:24:52.928Z,5.17
2019-04-23T07:27:26.289Z,5.25
2019-04-23T07:30:02.104Z,5.35
2019-04-23T07:32:23.676Z,4.95
2019-04-23T07:35:03.906Z,5.47
2019-04-23T07:37:29.278Z,5.50
2019-04-23T07:42:55.123Z,5.62
2019-04-23T07:45:35.389Z,5.67
2019-04-23T07:48:19.296Z,5.28
2019-04-23T07:50:55.205Z,4.80
2019-04-23T08:00:45.119Z,5.25
2019-04-23T08:08:11.831Z,4.97
2019-04-23T08:11:10.781Z,5.08
2019-04-23T08:13:21.639Z,4.87
2019-04-23T08:15:48.374Z,5.03
2019-04-23T08:18:26.306Z,5.25
2019-04-23T08:20:54.213Z,5.42
2019-04-23T08:23:25.677Z,4.85
2019-04-23T08:26:23.924Z,4.87
2019-04-23T08:28:51.674Z,5.28
2019-04-23T08:31:14.185Z,4.97
2019-04-23T08:33:49.757Z,5.00
2019-04-23T08:38:44.690Z,4.67
2019-04-23T08:43:53.250Z,4.20
2019-04-23T08:46:43.123Z,4.55
2019-04-23T08:49:07.870Z,5.00
2019-04-23T08:54:03.048Z,4.37
2019-04-23T08:56:46.415Z,4.50
2019-04-23T08:59:07.020Z,4.55
2019-04-23T09:01:39.672Z,4.42
2019-04-23T09:04:00.522Z,4.22
2019-04-23T09:06:29.459Z,4.03
2019-04-23T09:09:04.170Z,4.12
2019-04-23T09:11:41.725Z,4.33
2019-04-23T09:14:04.673Z,4.33
2019-04-23T09:16:36.327Z,3.80
2019-04-23T09:19:11.273Z,3.98
2019-04-23T09:21:33.355Z,3.65
2019-04-23T09:23:59.058Z,3.90
2019-04-23T09:26:37.913Z,3.47
2019-04-23T09:29:19.189Z,3.75
2019-04-23T09:34:45.124Z,3.55
2019-04-23T09:37:18.746Z,3.55
2019-04-23T09:40:14.918Z,3.80
2019-04-23T09:42:47.545Z,3.42
2019-04-23T09:45:12.640Z,3.65
2019-04-23T09:48:01.678Z,3.55
2019-04-23T09:53:15.189Z,3.67
2019-04-23T09:55:38.849Z,3.77
2019-04-23T10:03:01.227Z,3.90
2019-04-23T10:05:25.091Z,3.60
2019-04-23T10:07:53.355Z,3.40
2019-04-23T10:10:12.138Z,3.65
2019-04-23T10:12:42.202Z,3.27
2019-04-23T10:15:18.579Z,3.47
2019-04-23T10:17:44.528Z,3.33
2019-04-23T10:20:12.974Z,3.80
2019-04-23T10:22:54.582Z,3.90
2019-04-23T10:25:12.995Z,3.58
2019-04-23T10:27:41.390Z,3.35
2019-04-23T10:30:10.119Z,3.45
2019-04-23T10:32:39.976Z,3.30
2019-04-23T10:35:20.475Z,3.58
2019-04-23T10:40:38.745Z,2.80
2019-04-23T10:43:05.425Z,2.90
2019-04-23T10:45:55.183Z,3.30
2019-04-23T10:51:25.062Z,3.37
2019-04-23T10:54:02.672Z,3.30
2019-04-23T10:56:36.244Z,3.22
2019-04-23T10:58:54.928Z,2.98
2019-04-23T11:01:42.036Z,3.92
2019-04-23T11:04:25.545Z,3.33
2019-04-23T11:09:36.542Z,2.40
2019-04-23T11:11:47.006Z,2.30
2019-04-23T11:14:19.751Z,2.40
2019-04-23T11:16:56.660Z,2.10
2019-04-23T11:19:27.642Z,2.17
2019-04-23T11:21:58.466Z,1.95
2019-04-23T11:24:32.535Z,1.70
2019-04-23T11:26:52.953Z,2.22
2019-04-23T11:29:27.913Z,2.10
2019-04-23T11:31:52.923Z,1.82
2019-04-23T11:34:34.185Z,1.85
2019-04-23T11:39:21.708Z,1.85
2019-04-23T11:44:31.966Z,1.98
2019-04-23T11:49:34.647Z,2.10
2019-04-23T11:52:08.508Z,1.85
2019-04-23T11:54:24.167Z,1.77
2019-04-23T11:57:32.488Z,1.80
2019-04-23T11:59:31.901Z,1.62
2019-04-23T12:01:52.330Z,2.10
2019-04-23T12:04:50.386Z,1.80
2019-04-23T12:07:21.454Z,2.05
2019-04-23T12:12:24.610Z,1.90
2019-04-23T12:15:13.511Z,1.70
2019-04-23T12:17:31.677Z,1.65
2019-04-23T12:22:38.992Z,2.08
2019-04-23T12:27:39.068Z,1.45
2019-04-23T12:30:08.360Z,1.52
2019-04-23T12:40:27.517Z,1.40
2019-04-23T12:45:25.082Z,1.40
2019-04-23T12:52:47.650Z,1.10
2019-04-23T12:57:46.839Z,1.20
2019-04-23T13:00:22.550Z,1.27
2019-04-23T13:05:21.641Z,1.25
2019-04-23T13:10:28.329Z,1.22
2019-04-23T13:20:26.255Z,1.02
2019-04-23T13:22:54.858Z,1.15
2019-04-23T13:25:26.865Z,0.98
2019-04-23T13:28:01.473Z,1.32
2019-04-23T13:30:32.626Z,1.22
2019-04-23T13:33:02.756Z,1.00
2019-04-23T13:38:09.340Z,1.00
2019-04-23T13:40:57.666Z,0.90
2019-04-23T13:43:01.367Z,1.10
2019-04-23T13:45:53.010Z,0.90
2019-04-23T13:48:10.736Z,1.00
2019-04-23T13:50:57.815Z,1.00
2019-04-23T13:53:28.795Z,1.00
2019-04-23T13:55:26.760Z,1.00
2019-04-23T13:58:09.171Z,2.10
2019-04-23T14:00:46.401Z,1.30
2019-04-23T14:03:03.960Z,1.10
2019-04-23T14:06:03.219Z,1.12
2019-04-23T14:08:39.258Z,0.90
2019-04-23T14:11:15.836Z,0.82
2019-04-23T14:13:39.332Z,0.90
2019-04-23T14:16:04.608Z,1.10
2019-04-23T14:21:11.172Z,1.07
2019-04-23T14:23:55.904Z,2.87
2019-04-23T14:26:27.698Z,4.40
2019-04-23T14:28:41.108Z,1.35
2019-04-23T14:31:08.018Z,1.20
2019-04-23T14:33:50.623Z,1.10
2019-04-23T14:36:19.599Z,0.90
2019-04-23T14:41:12.493Z,0.80
2019-04-23T14:46:27.120Z,1.00
2019-04-23T14:48:38.428Z,0.90
2019-04-23T14:51:13.401Z,1.00
2019-04-23T14:53:40.759Z,1.00
2019-04-23T14:56:09.387Z,1.20
2019-04-23T14:58:53.453Z,0.90
2019-04-23T15:11:22.387Z,1.00
2019-04-23T15:18:53.315Z,0.98
2019-04-23T15:27:15.617Z,1.00
2019-04-23T15:28:21.866Z,1.12
2019-04-23T15:31:21.262Z,1.10
2019-04-23T15:33:55.346Z,1.00
2019-04-23T15:36:36.883Z,1.30
2019-04-23T15:38:53.447Z,0.95
2019-04-23T15:41:23.439Z,0.80
2019-04-23T15:43:53.141Z,0.90
2019-04-23T15:46:21.554Z,0.90
2019-04-23T15:48:57.538Z,0.78
2019-04-23T15:51:20.339Z,0.70
2019-04-23T15:53:46.396Z,1.00
2019-04-23T15:56:18.274Z,0.90
2019-04-23T15:58:54.152Z,0.90
2019-04-23T16:03:24.356Z,1.00
2019-04-23T16:05:51.062Z,0.78
2019-04-23T16:08:58.961Z,0.80
2019-04-23T16:11:27.385Z,0.90
2019-04-23T16:14:04.631Z,1.10
2019-04-23T16:16:26.016Z,1.85
2019-04-23T16:19:13.702Z,1.25
2019-04-23T16:21:47.990Z,1.57
2019-04-23T16:24:13.433Z,1.42
2019-04-23T16:31:40.276Z,1.25
2019-04-23T16:36:38.763Z,1.27
2019-04-23T16:39:12.270Z,1.17
2019-04-23T16:41:40.249Z,1.30
2019-04-23T16:44:14.233Z,1.20
2019-04-23T16:46:44.350Z,1.10
2019-04-23T16:49:19.745Z,1.35
2019-04-23T16:51:59.179Z,1.37
2019-04-23T16:54:16.959Z,1.22
2019-04-23T16:56:55.369Z,1.40
2019-04-23T16:59:15.499Z,1.50
2019-04-23T17:01:46.985Z,1.50
2019-04-23T17:04:19.494Z,1.85
2019-04-23T17:09:14.222Z,1.50
2019-04-23T17:11:41.906Z,1.62
2019-04-23T17:14:13.381Z,1.40
2019-04-23T17:16:38.075Z,1.32
2019-04-23T17:21:39.017Z,1.30
2019-04-23T17:26:35.705Z,1.50
2019-04-23T17:29:13.698Z,2.42
2019-04-23T17:34:17.646Z,1.47
2019-04-23T17:36:45.309Z,7.60
2019-04-23T17:39:25.490Z,1.67
2019-04-23T17:42:13.931Z,1.45
2019-04-23T17:47:08.731Z,1.47
2019-04-23T17:49:44.599Z,1.62
2019-04-23T17:52:13.073Z,1.47
2019-04-23T17:54:43.442Z,1.35
2019-04-23T18:05:02.579Z,1.60
2019-04-23T18:07:43.840Z,1.80
2019-04-23T18:10:12.018Z,1.98
2019-04-23T18:12:39.173Z,1.65
2019-04-23T18:15:02.147Z,1.55
2019-04-23T18:17:41.072Z,1.90
2019-04-23T18:20:04.960Z,2.10
2019-04-23T18:22:37.307Z,2.20
2019-04-23T18:27:46.836Z,2.50
2019-04-23T18:30:25.905Z,2.40
2019-04-23T18:33:33.863Z,2.30
2019-04-23T18:35:37.895Z,2.35
2019-04-23T18:38:04.760Z,2.50
2019-04-23T18:40:40.088Z,2.42
2019-04-23T18:43:21.105Z,2.30
2019-04-23T18:48:40.556Z,2.62
2019-04-23T18:53:33.514Z,2.25
2019-04-23T18:56:05.528Z,2.40
2019-04-23T18:58:21.933Z,2.42
2019-04-23T19:06:23.436Z,2.75
2019-04-23T19:09:04.334Z,2.50
2019-04-23T19:11:59.415Z,2.77
2019-04-23T19:14:19.953Z,2.75
2019-04-23T19:16:54.922Z,2.70
2019-04-23T19:19:25.465Z,2.70
2019-04-23T19:22:06.901Z,2.90
2019-04-23T19:24:18.563Z,2.92
2019-04-23T19:27:03.618Z,2.67
2019-04-23T19:29:21.345Z,2.87
2019-04-23T19:31:55.354Z,3.17
2019-04-23T19:34:35.550Z,3.47
2019-04-23T19:36:59.669Z,17.60
2019-04-23T19:39:33.782Z,13.35
2019-04-23T19:41:59.324Z,3.90
2019-04-23T19:44:25.665Z,3.75
2019-04-23T19:47:09.584Z,3.55
2019-04-23T19:49:32.739Z,3.58
2019-04-23T19:51:53.439Z,3.77
2019-04-23T19:56:55.238Z,3.85
2019-04-23T19:59:32.040Z,4.05
2019-04-23T20:02:00.211Z,3.85
2019-04-23T20:04:31.872Z,3.75
2019-04-23T20:07:12.251Z,4.08
2019-04-23T20:11:54.785Z,3.62
2019-04-23T20:14:26.403Z,3.77
2019-04-23T20:19:33.010Z,4.30
2019-04-23T20:24:34.736Z,4.00
2019-04-23T20:27:01.248Z,3.85
2019-04-23T20:30:02.760Z,3.67
2019-04-23T20:36:57.906Z,4.20
2019-04-23T20:39:41.988Z,4.10
2019-04-23T20:49:43.095Z,8.75
2019-04-23T20:54:51.188Z,11.97
2019-04-23T20:57:40.043Z,3.87
2019-04-23T21:00:01.873Z,5.97
2019-04-23T21:07:40.407Z,3.12
2019-04-23T21:10:19.928Z,5.65
2019-04-23T21:12:50.720Z,5.20
2019-04-23T21:15:10.609Z,5.75
2019-04-23T21:17:43.658Z,3.30
2019-04-23T21:20:08.852Z,3.37
2019-04-23T21:22:30.837Z,2.92
2019-04-23T21:25:14.823Z,3.35
2019-04-23T21:35:08.002Z,2.37
2019-04-23T21:37:49.988Z,2.52
2019-04-23T21:42:57.622Z,2.17
2019-04-23T21:45:28.550Z,2.25
2019-04-23T21:48:05.861Z,4.60
2019-04-23T21:50:25.286Z,2.62
2019-04-23T21:52:54.148Z,1.70
2019-04-23T21:55:39.098Z,1.60
2019-04-23T21:57:59.809Z,1.40
2019-04-23T22:00:34.611Z,1.15
2019-04-23T22:05:26.935Z,1.60
2019-04-23T22:07:56.728Z,1.40
2019-04-23T22:10:18.130Z,1.30
2019-04-23T22:13:02.174Z,1.00
2019-04-23T22:15:22.289Z,1.15
2019-04-23T22:17:50.128Z,1.00
2019-04-23T22:20:25.937Z,1.07
2019-04-23T22:25:21.976Z,1.10
2019-04-23T22:27:54.794Z,1.20
2019-04-23T22:30:24.705Z,1.30
2019-04-23T22:35:24.903Z,1.07
2019-04-23T22:38:02.477Z,1.10
2019-04-23T22:40:15.076Z,1.10
2019-04-23T22:43:09.822Z,1.05
2019-04-23T22:47:56.718Z,1.00
2019-04-23T22:50:19.045Z,1.20
2019-04-23T22:52:53.834Z,1.00
2019-04-23T22:55:40.376Z,1.00
2019-04-23T23:00:33.568Z,1.10
2019-04-23T23:02:58.316Z,0.95
2019-04-23T23:08:02.975Z,0.88
2019-04-23T23:13:04.067Z,1.00
2019-04-23T23:15:30.276Z,0.90
2019-04-23T23:23:06.434Z,0.80
2019-04-23T23:25:25.623Z,0.95
2019-04-23T23:28:58.358Z,1.10
2019-04-23T23:30:26.292Z,0.95
2019-04-23T23:33:05.736Z,1.02
2019-04-23T23:38:03.781Z,0.85
2019-04-23T23:40:25.632Z,0.90
2019-04-23T23:45:31.525Z,0.82
2019-04-23T23:47:58.671Z,0.82
2019-04-23T23:50:44.930Z,1.05
2019-04-23T23:58:12.858Z,0.93
